Time;durP1;ratioP1;P1;durP2;ratioP2;P2;SDS_P1;SDS_P2;PMS_P1;PMS_P2;Temp;Humidity;BMP_temperature;BMP_pressure;BME280_temperature;BME280_humidity;BME280_pressure;Samples;Min_cycle;Max_cycle;Signal;HPM_P1;HPM_P2
2022/08/16 00:03:19;;;;;;;5.68;5.18;;;;;;;19.28;100.00;100236.81;20942226;28;20519;-80
2022/08/16 00:13:24;;;;;;;5.50;4.90;;;;;;;19.26;100.00;100228.03;20951013;28;20387;-80
2022/08/16 00:23:29;;;;;;;5.43;4.93;;;;;;;19.30;100.00;100233.94;20949210;28;20376;-80
2022/08/16 00:33:40;;;;;;;5.00;4.55;;;;;;;19.56;100.00;100282.44;20951931;28;20102;-80
2022/08/16 00:43:51;;;;;;;5.25;4.75;;;;;;;19.46;100.00;100271.81;20929778;28;20048;-80
2022/08/16 00:53:54;;;;;;;5.93;5.43;;;;;;;19.20;100.00;100223.25;20948296;28;20101;-80
2022/08/16 01:03:56;;;;;;;5.63;5.13;;;;;;;19.22;100.00;100222.09;20957156;28;20040;-80
2022/08/16 01:14:08;;;;;;;5.50;5.00;;;;;;;19.54;100.00;100285.34;20894005;28;20127;-80
2022/08/16 01:24:26;;;;;;;4.93;4.53;;;;;;;19.54;100.00;100268.28;20845479;28;20041;-80
2022/08/16 01:34:48;;;;;;;5.38;4.88;;;;;;;19.53;100.00;100270.13;20879143;28;20048;-80
2022/08/16 01:44:57;;;;;;;5.25;4.85;;;;;;;19.53;100.00;100272.84;20952701;28;20123;-80
2022/08/16 01:55:00;;;;;;;5.30;4.80;;;;;;;19.54;100.00;100279.06;20883888;28;20485;-80
2022/08/16 02:05:04;;;;;;;5.30;4.80;;;;;;;18.88;100.00;100170.81;20874504;28;20552;-81
2022/08/16 02:15:07;;;;;;;5.50;5.00;;;;;;;19.52;100.00;100268.44;20883043;28;20132;-80
2022/08/16 02:25:14;;;;;;;5.60;5.10;;;;;;;19.47;100.00;100267.22;20879453;28;20344;-80
2022/08/16 02:35:16;;;;;;;5.38;4.97;;;;;;;19.51;100.00;100274.84;20954099;28;20079;-80
2022/08/16 02:45:26;;;;;;;5.20;4.70;;;;;;;19.52;100.00;100286.50;20967582;28;20501;-80
2022/08/16 02:55:29;;;;;;;5.88;5.38;;;;;;;19.52;100.00;100281.09;20951205;28;20057;-80
2022/08/16 03:05:46;;;;;;;5.80;5.30;;;;;;;19.51;100.00;100285.66;20861848;28;20084;-80
2022/08/16 03:15:53;;;;;;;5.07;4.65;;;;;;;19.51;100.00;100271.28;20931609;28;20547;-80
2022/08/16 03:25:55;;;;;;;5.30;4.80;;;;;;;19.50;100.00;100267.78;20872225;28;20529;-81
2022/08/16 03:35:59;;;;;;;6.00;5.40;;;;;;;19.50;100.00;100273.16;20868427;28;20049;-80
2022/08/16 03:46:27;;;;;;;5.97;5.38;;;;;;;19.49;100.00;100271.47;20979337;28;20120;-80
2022/08/16 03:56:51;;;;;;;6.55;6.03;;;;;;;19.32;100.00;100242.69;20896047;28;20044;-80
2022/08/16 04:06:58;;;;;;;5.82;5.32;;;;;;;19.49;100.00;100271.47;20942536;28;20048;-80
2022/08/16 04:17:04;;;;;;;5.95;5.45;;;;;;;19.48;100.00;100275.19;20925386;28;20059;-81
2022/08/16 04:27:09;;;;;;;5.75;5.25;;;;;;;19.47;100.00;100281.59;20935157;28;20060;-78
2022/08/16 04:37:13;;;;;;;6.55;5.85;;;;;;;19.47;100.00;100278.91;20888730;28;20496;-79
2022/08/16 04:47:27;;;;;;;8.50;7.50;;;;;;;19.48;100.00;100285.13;20899334;28;20072;-81
2022/08/16 04:57:39;;;;;;;11.77;10.57;;;;;;;19.29;100.00;100278.97;20920479;28;20103;-80
2022/08/16 05:07:44;;;;;;;15.45;13.20;;;;;;;19.16;100.00;100265.06;20898249;28;20135;-81
2022/08/16 05:18:02;;;;;;;17.27;14.65;;;;;;;19.42;100.00;100313.59;20938022;28;20064;-80
2022/08/16 05:40:09;;;;;;;18.48;16.55;;;;;;;19.27;100.00;100303.41;20946367;28;20067;-80
2022/08/16 05:50:15;;;;;;;18.25;16.10;;;;;;;19.42;100.00;100325.25;20927485;28;20135;-80
2022/08/16 06:00:20;;;;;;;17.30;15.50;;;;;;;19.43;100.00;100326.09;20929912;28;20061;-81
2022/08/16 06:10:26;;;;;;;18.58;16.58;;;;;;;19.15;100.00;100295.75;20884288;28;20555;-81
2022/08/16 06:20:36;;;;;;;17.90;14.00;;;;;;;19.14;100.00;100305.69;20916030;28;20053;-80
2022/08/16 06:30:57;;;;;;;15.40;13.52;;;;;;;19.36;100.00;100352.03;20907166;28;20071;-79
2022/08/16 06:41:06;;;;;;;12.77;11.50;;;;;;;19.28;100.00;100339.34;20918350;28;20048;-80
2022/08/16 06:51:14;;;;;;;10.90;9.60;;;;;;;19.19;100.00;100314.16;20925400;28;20054;-80
2022/08/16 07:01:16;;;;;;;10.23;8.90;;;;;;;19.52;100.00;100376.44;20934929;28;20059;-80
2022/08/16 07:11:25;;;;;;;10.43;9.27;;;;;;;19.36;100.00;100341.22;20940763;28;20053;-80
2022/08/16 07:21:47;;;;;;;10.13;9.13;;;;;;;19.54;100.00;100376.25;20936041;28;20052;-82
2022/08/16 07:32:01;;;;;;;8.30;7.50;;;;;;;19.58;100.00;100371.41;20901368;28;20045;-81
2022/08/16 07:42:05;;;;;;;8.98;7.50;;;;;;;19.61;100.00;100389.97;20898768;28;20135;-80
2022/08/16 07:52:08;;;;;;;8.23;7.43;;;;;;;19.63;100.00;100390.66;20877875;28;20589;-81
2022/08/16 08:02:20;;;;;;;8.95;8.02;;;;;;;19.64;100.00;100390.50;20871257;28;20052;-79
2022/08/16 08:12:30;;;;;;;6.97;6.28;;;;;;;19.65;100.00;100388.66;20886342;28;20059;-79
2022/08/16 08:22:38;;;;;;;7.93;7.00;;;;;;;19.65;100.00;100388.66;20917475;28;20505;-79
2022/08/16 08:32:43;;;;;;;;;;;;;;;19.65;100.00;100407.56;20911586;28;20056;-79
2022/08/16 08:43:12;;;;;;;7.15;6.20;;;;;;;19.40;100.00;100369.59;20902816;28;20288;-79
2022/08/16 08:53:28;;;;;;;6.68;6.03;;;;;;;19.47;100.00;100375.22;20878278;28;20150;-78
2022/08/16 09:03:32;;;;;;;6.90;6.30;;;;;;;19.67;100.00;100419.03;20894326;28;20045;-78
2022/08/16 09:13:34;;;;;;;6.75;6.15;;;;;;;19.69;100.00;100423.28;20876142;28;20052;-79
2022/08/16 09:23:38;;;;;;;7.20;6.60;;;;;;;19.71;100.00;100431.22;20909965;28;20053;-79
2022/08/16 09:33:42;;;;;;;6.50;5.90;;;;;;;19.61;100.00;100425.91;20897192;28;20070;-80
2022/08/16 09:43:44;;;;;;;7.03;6.30;;;;;;;19.61;100.00;100425.91;20906857;28;20047;-80
2022/08/16 09:54:00;;;;;;;8.10;6.18;;;;;;;19.69;100.00;100438.63;20908660;28;20523;-79
2022/08/16 10:04:04;;;;;;;6.93;6.22;;;;;;;19.52;100.00;100405.28;20898253;28;20053;-79
2022/08/16 10:14:29;;;;;;;7.07;6.45;;;;;;;19.46;100.00;100395.97;20909798;28;20056;-79
2022/08/16 10:24:33;;;;;;;7.18;6.28;;;;;;;19.58;100.00;100425.41;20887507;28;20059;-80
2022/08/16 10:34:35;;;;;;;6.78;6.18;;;;;;;19.68;100.00;100442.34;20878818;28;20158;-79
2022/08/16 10:44:38;;;;;;;6.75;6.15;;;;;;;19.59;100.00;100444.13;20874174;28;20041;-81
2022/08/16 10:54:39;;;;;;;6.70;6.10;;;;;;;19.59;100.00;100432.50;20874200;28;20052;-79
2022/08/16 11:05:01;;;;;;;7.35;6.20;;;;;;;19.69;100.00;100471.91;20867387;28;20053;-80
2022/08/16 11:15:10;;;;;;;7.13;5.50;;;;;;;19.74;100.00;100481.38;20872835;28;20056;-79
2022/08/16 11:25:17;;;;;;;8.70;5.77;;;;;;;19.83;100.00;100473.13;20871874;28;20405;-79
2022/08/16 11:35:39;;;;;;;6.97;5.30;;;;;;;19.91;100.00;100485.06;20889536;28;20099;-80
2022/08/16 11:45:47;;;;;;;5.63;5.07;;;;;;;19.93;100.00;100478.47;20867802;28;20053;-80
2022/08/16 11:55:55;;;;;;;6.13;5.28;;;;;;;19.40;100.00;100392.06;20877509;28;20497;-79
2022/08/16 12:05:58;;;;;;;5.38;4.88;;;;;;;19.98;100.00;100486.94;20866092;28;20102;-79
2022/08/16 12:16:01;;;;;;;6.32;5.22;;;;;;;19.96;100.00;100474.63;20869925;28;20052;-79
2022/08/16 12:26:02;;;;;;;5.55;5.05;;;;;;;20.12;100.00;100503.59;20890777;28;20059;-81
2022/08/16 12:36:12;;;;;;;5.50;5.00;;;;;;;20.08;100.00;100491.38;20905170;28;20044;-81
2022/08/16 12:46:14;;;;;;;6.28;5.35;;;;;;;20.17;100.00;100494.97;20891946;28;20048;-79
2022/08/16 12:56:18;;;;;;;6.35;4.97;;;;;;;20.16;100.00;100504.97;20875610;28;20075;-79
2022/08/16 13:06:22;;;;;;;6.72;5.15;;;;;;;20.08;100.00;100505.75;20880932;28;20161;-79
2022/08/16 13:16:34;;;;;;;4.68;4.28;;;;;;;19.93;100.00;100486.56;20853493;28;20524;-80
2022/08/16 13:26:36;;;;;;;5.30;4.80;;;;;;;20.02;100.00;100511.81;20874676;28;20052;-79
2022/08/16 13:36:37;;;;;;;5.40;4.90;;;;;;;19.69;100.00;100460.22;20880701;28;20040;-80
2022/08/16 13:46:50;;;;;;;4.95;4.45;;;;;;;19.97;100.00;100516.84;20865121;28;20048;-80
2022/08/16 13:56:54;;;;;;;5.60;4.50;;;;;;;19.94;100.00;100514.47;20886172;28;20606;-80
2022/08/16 14:06:57;;;;;;;5.97;4.63;;;;;;;19.93;100.00;100527.09;20900569;28;20132;-80
2022/08/16 14:17:00;;;;;;;5.13;4.70;;;;;;;19.92;100.00;100522.72;20884596;28;20048;-82
2022/08/16 14:27:03;;;;;;;7.03;4.70;;;;;;;19.93;100.00;100542.47;20887612;28;20624;-76
2022/08/16 14:37:06;;;;;;;5.20;4.70;;;;;;;19.70;100.00;100505.13;20884896;28;20049;-76
2022/08/16 14:47:08;;;;;;;5.30;4.80;;;;;;;19.90;100.00;100548.16;20908703;28;20124;-77
2022/08/16 14:57:13;;;;;;;6.32;4.72;;;;;;;19.90;100.00;100540.94;20882912;28;20416;-79
2022/08/16 15:07:18;;;;;;;6.63;5.15;;;;;;;19.90;100.00;100546.34;20860991;28;20053;-79
2022/08/16 15:17:29;;;;;;;9.00;5.38;;;;;;;19.74;100.00;100528.13;20897566;28;20056;-77
2022/08/16 15:27:40;;;;;;;6.78;5.13;;;;;;;19.90;100.00;100548.16;20909575;28;20102;-76
2022/08/16 15:37:42;;;;;;;;;;;;;;;19.89;100.00;100549.19;20889655;28;20140;-77
2022/08/16 15:47:44;;;;;;;7.00;5.20;;;;;;;19.86;100.00;100556.56;20897545;28;19933;-77
2022/08/16 15:57:56;;;;;;;7.80;5.30;;;;;;;19.65;100.00;100539.88;20888500;28;20055;-77
2022/08/16 16:07:58;;;;;;;6.60;5.35;;;;;;;19.72;100.00;100551.75;20869510;28;20529;-76
2022/08/16 16:18:13;;;;;;;6.28;5.40;;;;;;;19.87;100.00;100570.94;20876187;28;20075;-77
2022/08/16 16:28:17;;;;;;;7.82;5.85;;;;;;;19.81;100.00;100566.16;20875932;28;20052;-77
2022/08/16 16:38:39;;;;;;;6.43;5.80;;;;;;;19.86;100.00;100580.88;20883597;28;20060;-78
2022/08/16 16:48:43;;;;;;;7.40;6.00;;;;;;;19.86;100.00;100596.25;20891923;28;20131;-77
2022/08/16 16:58:56;;;;;;;7.93;6.88;;;;;;;19.85;100.00;100603.50;20867253;28;20391;-76
2022/08/16 17:09:05;;;;;;;7.68;6.88;;;;;;;19.85;100.00;100610.75;20844452;28;20049;-78
2022/08/16 17:19:12;;;;;;;9.65;6.22;;;;;;;19.67;100.00;100583.78;20875897;28;20433;-78
2022/08/16 17:29:22;;;;;;;8.82;6.63;;;;;;;19.75;100.00;100600.03;20897463;28;20508;-79
2022/08/16 17:39:34;;;;;;;13.07;8.40;;;;;;;19.89;100.00;100627.53;20906811;28;20218;-76
2022/08/16 17:49:57;;;;;;;13.53;7.70;;;;;;;19.92;100.00;100627.25;20898880;28;20042;-76
2022/08/16 17:59:59;;;;;;;14.98;8.90;;;;;;;20.04;100.00;100638.63;20905616;28;20138;-77
2022/08/16 18:10:01;;;;;;;13.40;7.13;;;;;;;20.14;100.00;100653.75;20907906;28;20053;-78
2022/08/16 18:22:16;;;;;;;12.30;7.20;;;;;;;20.14;100.00;100672.66;20880483;28;20048;-80
2022/08/16 18:30:28;;;;;;;11.13;7.70;;;;;;;20.10;100.00;100673.13;20886154;28;20169;-76
2022/08/16 18:40:29;;;;;;;12.48;7.82;;;;;;;20.01;100.00;100680.34;20904657;28;20061;-78
2022/08/16 18:50:32;;;;;;;9.48;6.88;;;;;;;20.03;100.00;100690.97;20916195;28;20067;-76
2022/08/16 19:00:55;;;;;;;8.95;7.60;;;;;;;20.00;100.00;100706.50;20927867;28;20048;-77
2022/08/16 19:10:59;;;;;;;10.77;7.80;;;;;;;19.91;100.00;100698.47;20902757;28;20045;-77
2022/08/16 19:21:01;;;;;;;8.25;6.95;;;;;;;19.97;100.00;100727.59;20924171;28;20405;-77
2022/08/16 19:31:04;;;;;;;9.90;7.15;;;;;;;19.94;100.00;100727.91;20911687;28;20060;-78
2022/08/16 19:41:05;;;;;;;7.80;6.18;;;;;;;19.93;100.00;100735.13;20923600;28;20412;-78
2022/08/16 19:51:08;;;;;;;7.28;6.57;;;;;;;19.93;100.00;100755.91;20915286;28;20040;-77
2022/08/16 20:01:11;;;;;;;7.55;6.78;;;;;;;19.64;100.00;100713.72;20936111;28;20107;-77
2022/08/16 20:11:12;;;;;;;7.32;6.57;;;;;;;19.91;100.00;100771.44;20956400;28;20041;-77
2022/08/16 20:21:14;;;;;;;9.15;6.68;;;;;;;19.82;100.00;100757.78;20995185;28;20424;-77
2022/08/16 20:31:16;;;;;;;7.45;5.90;;;;;;;19.89;100.00;100790.44;21039998;28;20434;-77
2022/08/16 20:41:17;;;;;;;7.07;6.13;;;;;;;19.88;100.00;100788.75;21036484;28;20043;-79
2022/08/16 20:51:19;;;;;;;6.72;6.05;;;;;;;19.70;100.00;100780.63;21042932;28;20393;-77
2022/08/16 21:01:21;;;;;;;8.82;6.63;;;;;;;19.86;100.00;100798.84;21043190;28;20404;-77
2022/08/16 21:11:26;;;;;;;7.18;6.45;;;;;;;19.68;100.00;100783.47;21047998;28;20059;-77
2022/08/16 21:21:28;;;;;;;6.72;6.03;;;;;;;19.78;100.00;100806.88;21037465;28;20393;-78
2022/08/16 21:31:34;;;;;;;7.90;6.10;;;;;;;19.55;100.00;100778.44;21053060;28;20503;-78
2022/08/16 21:41:37;;;;;;;6.90;6.22;;;;;;;19.83;100.00;100837.81;21055575;28;20138;-78
2022/08/16 21:51:39;;;;;;;8.05;7.25;;;;;;;19.76;100.00;100833.19;21055491;28;20036;-78
2022/08/16 22:01:41;;;;;;;6.85;6.25;;;;;;;19.82;100.00;100844.22;21063634;28;20110;-78
2022/08/16 22:11:43;;;;;;;9.13;6.72;;;;;;;19.65;100.00;100828.84;21044542;28;20059;-78
2022/08/16 22:21:45;;;;;;;6.47;5.78;;;;;;;19.80;100.00;100838.13;21046165;28;20511;-77
2022/08/16 22:31:47;;;;;;;6.72;6.05;;;;;;;19.73;100.00;100828.09;21058097;28;20117;-78
2022/08/16 22:41:49;;;;;;;6.93;6.32;;;;;;;19.70;100.00;100823.81;21056407;28;20094;-77
2022/08/16 22:51:51;;;;;;;6.95;6.25;;;;;;;19.78;100.00;100848.22;21049928;28;20496;-77
2022/08/16 23:01:53;;;;;;;7.75;6.45;;;;;;;19.78;100.00;100834.72;21040231;28;20386;-78
2022/08/16 23:11:55;;;;;;;7.57;6.88;;;;;;;19.51;100.00;100793.22;21018436;28;20048;-77
2022/08/16 23:21:57;;;;;;;7.45;6.75;;;;;;;19.32;100.00;100766.31;21031482;28;20052;-77
2022/08/16 23:32:09;;;;;;;7.03;6.38;;;;;;;19.54;100.00;100784.84;21044371;28;20577;-78
2022/08/16 23:42:16;;;;;;;8.25;7.45;;;;;;;19.60;100.00;100790.63;21045984;28;20040;-77
2022/08/16 23:52:37;;;;;;;;;;;;;;;19.75;100.00;100793.69;21049277;28;20123;-78
